Aviation Digital Data Service (ADDS)

Output produced by METARs form (0836 UTC 20 April 2018)
found at http://aviationweather.gov/adds/metars/
 
KART 200520Z 2006/2106 31009KT P6SM BKN060 
     FM201300 31010KT P6SM BKN012 
     FM201700 27011KT P6SM BKN012 
     FM210000 26006KT P6SM SCT035 
     FM210300 VRB03KT P6SM SCT045